Time,TemperatureF,DewpointF,PressureIn,WindDirection,WindDirectionDegrees,WindSpeedMPH,WindSpeedGustMPH,Humidity,HourlyPrecipIn,Conditions,Clouds,dailyrainin,SoftwareType,DateUTC
2013-09-05 00:01:00,76.7,38.3,30.23,SE,135,1.3,1.3,25,0.00,,---,0.00,VWS V14.01,2013-09-05 06:01:00,
2013-09-05 00:06:00,76.5,39.1,30.23,SE,135,3.6,3.6,26,0.00,,---,0.00,VWS V14.01,2013-09-05 06:06:00,
2013-09-05 00:11:00,76.5,39.1,30.23,SE,135,4.9,4.9,26,0.00,,---,0.00,VWS V14.01,2013-09-05 06:11:00,
2013-09-05 00:16:00,76.3,39.9,30.24,East,90,2.7,2.7,27,0.00,,---,0.00,VWS V14.01,2013-09-05 06:16:00,
2013-09-05 00:21:00,76.0,39.6,30.23,SE,135,2.5,2.5,27,0.00,,---,0.00,VWS V14.01,2013-09-05 06:21:00,
2013-09-05 00:26:00,76.0,39.6,30.23,SE,135,2.9,2.9,27,0.00,,---,0.00,VWS V14.01,2013-09-05 06:26:00,
2013-09-05 00:31:00,75.8,40.4,30.23,SSE,158,2.5,2.5,28,0.00,,---,0.00,VWS V14.01,2013-09-05 06:31:00,
2013-09-05 00:36:00,76.0,40.6,30.24,SSE,158,2.5,2.5,28,0.00,,---,0.00,VWS V14.01,2013-09-05 06:36:00,
2013-09-05 00:41:00,76.0,39.6,30.23,SE,135,1.8,1.8,27,0.00,,---,0.00,VWS V14.01,2013-09-05 06:41:00,
2013-09-05 00:46:00,76.0,39.6,30.23,SE,135,2.7,2.7,27,0.00,,---,0.00,VWS V14.01,2013-09-05 06:46:00,
2013-09-05 00:51:00,76.0,39.6,30.24,SSE,158,2.0,2.0,27,0.00,,---,0.00,VWS V14.01,2013-09-05 06:51:00,
2013-09-05 00:56:00,76.0,40.6,30.23,SSE,158,1.3,1.3,28,0.00,,---,0.00,VWS V14.01,2013-09-05 06:56:00,
2013-09-05 01:01:00,76.0,39.6,30.23,SE,135,4.0,4.0,27,0.00,,---,0.00,VWS V14.01,2013-09-05 07:01:00,
2013-09-05 01:06:00,76.0,40.6,30.23,South,180,3.4,3.4,28,0.00,,---,0.00,VWS V14.01,2013-09-05 07:06:00,
2013-09-05 01:11:00,75.8,40.4,30.23,SE,135,1.8,1.8,28,0.00,,---,0.00,VWS V14.01,2013-09-05 07:11:00,
2013-09-05 01:16:00,75.6,40.2,30.24,SE,135,3.8,3.8,28,0.00,,---,0.00,VWS V14.01,2013-09-05 07:16:00,
2013-09-05 01:21:00,75.6,40.2,30.23,SE,135,2.2,2.2,28,0.00,,---,0.00,VWS V14.01,2013-09-05 07:21:00,
2013-09-05 01:26:00,75.4,40.1,30.23,SE,135,3.4,3.4,28,0.00,,---,0.00,VWS V14.01,2013-09-05 07:26:00,
2013-09-05 01:31:00,75.4,40.1,30.23,SE,135,2.0,2.0,28,0.00,,---,0.00,VWS V14.01,2013-09-05 07:31:00,
2013-09-05 01:36:00,75.2,39.9,30.23,SE,135,1.1,1.1,28,0.00,,---,0.00,VWS V14.01,2013-09-05 07:36:00,
2013-09-05 01:41:00,75.1,39.8,30.23,SSE,158,2.5,2.5,28,0.00,,---,0.00,VWS V14.01,2013-09-05 07:41:00,
2013-09-05 01:46:00,75.1,39.8,30.23,SSE,158,2.0,2.0,28,0.00,,---,0.00,VWS V14.01,2013-09-05 07:46:00,
2013-09-05 01:51:00,75.4,40.1,30.23,South,180,3.4,3.4,28,0.00,,---,0.00,VWS V14.01,2013-09-05 07:51:00,
2013-09-05 01:56:00,75.4,40.1,30.23,SE,135,2.5,2.5,28,0.00,,---,0.00,VWS V14.01,2013-09-05 07:56:00,
2013-09-05 02:01:00,75.4,40.1,30.23,SSE,158,0.4,0.4,28,0.00,,---,0.00,VWS V14.01,2013-09-05 08:01:00,
2013-09-05 02:06:00,74.9,40.5,30.23,SSW,202,0.0,0.0,29,0.00,,---,0.00,VWS V14.01,2013-09-05 08:06:00,
2013-09-05 02:11:00,74.2,39.9,30.23,West,270,0.9,0.9,29,0.00,,---,0.00,VWS V14.01,2013-09-05 08:11:00,
2013-09-05 02:16:00,73.4,40.1,30.23,NNW,338,0.4,0.4,30,0.00,,---,0.00,VWS V14.01,2013-09-05 08:16:00,
2013-09-05 02:21:00,72.9,40.5,30.23,NNW,338,0.0,0.0,31,0.00,,---,0.00,VWS V14.01,2013-09-05 08:21:00,
2013-09-05 02:26:00,72.0,40.6,30.23,WNW,292,0.9,0.9,32,0.00,,---,0.00,VWS V14.01,2013-09-05 08:26:00,
2013-09-05 02:31:00,71.6,40.2,30.23,WNW,292,0.4,0.4,32,0.00,,---,0.00,VWS V14.01,2013-09-05 08:31:00,
2013-09-05 02:36:00,71.3,40.7,30.23,NNE,22,1.1,1.1,33,0.00,,---,0.00,VWS V14.01,2013-09-05 08:36:00,
2013-09-05 02:41:00,71.3,40.7,30.23,NNE,22,0.9,0.9,33,0.00,,---,0.00,VWS V14.01,2013-09-05 08:41:00,
2013-09-05 02:46:00,70.9,41.2,30.23,NNE,22,0.4,0.4,34,0.00,,---,0.00,VWS V14.01,2013-09-05 08:46:00,
2013-09-05 02:51:00,70.6,40.9,30.23,NNE,22,0.0,0.0,34,0.00,,---,0.00,VWS V14.01,2013-09-05 08:51:00,
2013-09-05 02:56:00,69.5,40.7,30.23,NNE,22,0.4,0.4,35,0.00,,---,0.00,VWS V14.01,2013-09-05 08:56:00,
2013-09-05 03:01:00,69.3,40.5,30.23,NNE,22,0.0,0.0,35,0.00,,---,0.00,VWS V14.01,2013-09-05 09:01:00,
2013-09-05 03:06:00,69.3,41.9,30.23,NE,45,0.9,0.9,37,0.00,,---,0.00,VWS V14.01,2013-09-05 09:06:00,
2013-09-05 03:11:00,69.3,41.9,30.23,NE,45,0.4,0.4,37,0.00,,---,0.00,VWS V14.01,2013-09-05 09:11:00,
2013-09-05 03:16:00,68.6,42.0,30.23,NE,45,0.9,0.9,38,0.00,,---,0.00,VWS V14.01,2013-09-05 09:16:00,
2013-09-05 03:21:00,68.9,42.3,30.23,ENE,68,0.4,0.4,38,0.00,,---,0.00,VWS V14.01,2013-09-05 09:21:00,
2013-09-05 03:26:00,68.4,42.5,30.23,ENE,68,0.7,0.7,39,0.00,,---,0.00,VWS V14.01,2013-09-05 09:26:00,
2013-09-05 03:31:00,68.0,43.5,30.23,East,90,0.2,0.2,41,0.00,,---,0.00,VWS V14.01,2013-09-05 09:31:00,
2013-09-05 03:36:00,68.0,44.1,30.23,East,90,1.1,1.1,42,0.00,,---,0.00,VWS V14.01,2013-09-05 09:36:00,
2013-09-05 03:41:00,67.7,42.5,30.23,ESE,112,0.9,0.9,40,0.00,,---,0.00,VWS V14.01,2013-09-05 09:41:00,
2013-09-05 03:46:00,67.7,42.5,30.23,ESE,112,1.1,1.1,40,0.00,,---,0.00,VWS V14.01,2013-09-05 09:46:00,
2013-09-05 03:51:00,67.7,41.9,30.23,ESE,112,0.0,0.0,39,0.00,,---,0.00,VWS V14.01,2013-09-05 09:51:00,
2013-09-05 03:56:00,67.1,41.3,30.23,ESE,112,0.0,0.0,39,0.00,,---,0.00,VWS V14.01,2013-09-05 09:56:00,
2013-09-05 04:01:00,67.0,41.2,30.23,ESE,112,0.2,0.2,39,0.00,,---,0.00,VWS V14.01,2013-09-05 10:01:00,
2013-09-05 04:06:00,66.8,41.7,30.23,ESE,112,0.0,0.0,40,0.00,,---,0.00,VWS V14.01,2013-09-05 10:06:00,
2013-09-05 04:11:00,66.6,42.2,30.23,ESE,112,0.4,0.4,41,0.00,,---,0.00,VWS V14.01,2013-09-05 10:11:00,
2013-09-05 04:16:00,66.2,43.1,30.23,ESE,112,0.7,0.7,43,0.00,,---,0.00,VWS V14.01,2013-09-05 10:16:00,
2013-09-05 04:21:00,65.7,43.8,30.23,ESE,112,1.8,1.8,45,0.00,,---,0.00,VWS V14.01,2013-09-05 10:21:00,
2013-09-05 04:26:00,65.7,43.8,30.23,ESE,112,0.0,0.0,45,0.00,,---,0.00,VWS V14.01,2013-09-05 10:26:00,
2013-09-05 04:31:00,65.2,43.9,30.23,ESE,112,0.2,0.2,46,0.00,,---,0.00,VWS V14.01,2013-09-05 10:31:00,
2013-09-05 04:36:00,64.8,44.1,30.23,ESE,112,0.0,0.0,47,0.00,,---,0.00,VWS V14.01,2013-09-05 10:36:00,
2013-09-05 04:41:00,64.3,43.1,30.23,SE,135,0.7,0.7,46,0.00,,---,0.00,VWS V14.01,2013-09-05 10:41:00,
2013-09-05 04:46:00,63.9,44.4,30.23,SE,135,0.0,0.0,49,0.00,,---,0.00,VWS V14.01,2013-09-05 10:46:00,
2013-09-05 04:51:00,63.9,44.4,30.23,ESE,112,0.4,0.4,49,0.00,,---,0.00,VWS V14.01,2013-09-05 10:51:00,
2013-09-05 04:56:00,63.7,44.7,30.23,ESE,112,0.0,0.0,50,0.00,,---,0.00,VWS V14.01,2013-09-05 10:56:00,
2013-09-05 05:01:00,63.4,45.5,30.23,ENE,68,0.4,0.4,52,0.00,,---,0.00,VWS V14.01,2013-09-05 11:01:00,
2013-09-05 05:06:00,63.2,45.3,30.23,ENE,68,0.4,0.4,52,0.00,,---,0.00,VWS V14.01,2013-09-05 11:06:00,
2013-09-05 05:11:00,62.8,45.4,30.23,ENE,68,0.0,0.0,53,0.00,,---,0.00,VWS V14.01,2013-09-05 11:11:00,
2013-09-05 05:16:00,63.2,46.3,30.23,East,90,0.2,0.2,54,0.00,,---,0.00,VWS V14.01,2013-09-05 11:16:00,
2013-09-05 05:21:00,63.2,45.8,30.23,East,90,0.0,0.0,53,0.00,,---,0.00,VWS V14.01,2013-09-05 11:21:00,
2013-09-05 05:26:00,63.0,45.6,30.23,East,90,0.9,0.9,53,0.00,,---,0.00,VWS V14.01,2013-09-05 11:26:00,
2013-09-05 05:31:00,63.0,45.6,30.23,East,90,0.0,0.0,53,0.00,,---,0.00,VWS V14.01,2013-09-05 11:31:00,
2013-09-05 05:36:00,62.8,44.9,30.23,East,90,0.0,0.0,52,0.00,,---,0.00,VWS V14.01,2013-09-05 11:36:00,
2013-09-05 05:41:00,62.5,45.2,30.23,East,90,0.0,0.0,53,0.00,,---,0.00,VWS V14.01,2013-09-05 11:41:00,
2013-09-05 05:46:00,62.3,46.0,30.23,East,90,0.0,0.0,55,0.00,,---,0.00,VWS V14.01,2013-09-05 11:46:00,
2013-09-05 05:51:00,62.5,46.1,30.23,ESE,112,0.4,0.4,55,0.00,,---,0.00,VWS V14.01,2013-09-05 11:51:00,
2013-09-05 05:56:00,62.8,45.4,30.23,ESE,112,1.1,1.1,53,0.00,,---,0.00,VWS V14.01,2013-09-05 11:56:00,
2013-09-05 06:01:00,63.2,45.3,30.24,ESE,112,1.8,1.8,52,0.00,,---,0.00,VWS V14.01,2013-09-05 12:01:00,
2013-09-05 06:06:00,63.2,45.3,30.23,ESE,112,1.8,1.8,52,0.00,,---,0.00,VWS V14.01,2013-09-05 12:06:00,
2013-09-05 06:11:00,63.0,44.6,30.24,ESE,112,0.0,0.0,51,0.00,,---,0.00,VWS V14.01,2013-09-05 12:11:00,
2013-09-05 06:16:00,62.8,44.4,30.23,ESE,112,0.0,0.0,51,0.00,,---,0.00,VWS V14.01,2013-09-05 12:16:00,
2013-09-05 06:21:00,62.6,44.2,30.24,ESE,112,0.4,0.4,51,0.00,,---,0.00,VWS V14.01,2013-09-05 12:21:00,
2013-09-05 06:26:00,63.0,44.6,30.24,ESE,112,1.1,1.1,51,0.00,,---,0.00,VWS V14.01,2013-09-05 12:26:00,
2013-09-05 06:31:00,62.6,43.7,30.24,ESE,112,0.0,0.0,50,0.00,,---,0.00,VWS V14.01,2013-09-05 12:31:00,
2013-09-05 06:36:00,62.6,44.2,30.24,ESE,112,0.0,0.0,51,0.00,,---,0.00,VWS V14.01,2013-09-05 12:36:00,
2013-09-05 06:40:00,62.5,44.7,30.24,ESE,112,0.0,0.0,52,0.00,,---,0.00,VWS V14.01,2013-09-05 12:40:00,
2013-09-05 06:45:00,62.5,44.7,30.24,East,90,0.0,0.0,52,0.00,,---,0.00,VWS V14.01,2013-09-05 12:45:00,
2013-09-05 06:50:00,62.3,45.0,30.24,SW,225,0.4,0.4,53,0.00,,---,0.00,VWS V14.01,2013-09-05 12:50:00,
2013-09-05 06:55:00,61.9,44.6,30.24,SW,225,0.0,0.0,53,0.00,,---,0.00,VWS V14.01,2013-09-05 12:55:00,
2013-09-05 07:00:00,61.7,45.9,30.24,ENE,68,0.7,0.7,56,0.00,,---,0.00,VWS V14.01,2013-09-05 13:00:00,
2013-09-05 07:05:00,61.6,45.3,30.24,ESE,112,0.0,0.0,55,0.00,,---,0.00,VWS V14.01,2013-09-05 13:05:00,
2013-09-05 07:10:00,61.7,45.4,30.24,ENE,68,0.0,0.0,55,0.00,,---,0.00,VWS V14.01,2013-09-05 13:10:00,
2013-09-05 07:15:00,61.9,46.0,30.24,SW,225,0.0,0.0,56,0.00,,---,0.00,VWS V14.01,2013-09-05 13:15:00,
2013-09-05 07:20:00,61.7,45.4,30.25,SW,225,0.2,0.2,55,0.00,,---,0.00,VWS V14.01,2013-09-05 13:20:00,
2013-09-05 07:25:00,62.6,46.2,30.25,SW,225,0.0,0.0,55,0.00,,---,0.00,VWS V14.01,2013-09-05 13:25:00,
2013-09-05 07:30:00,65.5,47.4,30.25,ESE,112,0.0,0.0,52,0.00,,---,0.00,VWS V14.01,2013-09-05 13:30:00,
2013-09-05 07:35:00,67.3,48.0,30.25,ESE,112,1.1,1.1,50,0.00,,---,0.00,VWS V14.01,2013-09-05 13:35:00,
2013-09-05 07:40:00,68.8,48.3,30.25,ESE,112,0.0,0.0,48,0.00,,---,0.00,VWS V14.01,2013-09-05 13:40:00,
2013-09-05 07:45:00,70.0,48.3,30.25,ENE,68,0.7,0.7,46,0.00,,---,0.00,VWS V14.01,2013-09-05 13:45:00,
2013-09-05 07:50:00,70.9,47.9,30.25,ENE,68,1.1,1.1,44,0.00,,---,0.00,VWS V14.01,2013-09-05 13:50:00,
2013-09-05 07:55:00,70.6,47.0,30.25,ENE,68,0.4,0.4,43,0.00,,---,0.00,VWS V14.01,2013-09-05 13:55:00,
2013-09-05 08:00:00,70.6,48.2,30.25,East,90,0.4,0.4,45,0.00,,---,0.00,VWS V14.01,2013-09-05 14:00:00,
2013-09-05 08:05:00,71.3,47.7,30.25,SE,135,0.0,0.0,43,0.00,,---,0.00,VWS V14.01,2013-09-05 14:05:00,
2013-09-05 08:10:00,73.3,48.2,30.25,East,90,0.4,0.4,41,0.00,,---,0.00,VWS V14.01,2013-09-05 14:10:00,
2013-09-05 08:15:00,75.2,48.6,30.25,East,90,0.0,0.0,39,0.00,,---,0.00,VWS V14.01,2013-09-05 14:15:00,
2013-09-05 08:20:00,76.3,50.2,30.25,East,90,0.0,0.0,40,0.00,,---,0.00,VWS V14.01,2013-09-05 14:20:00,
2013-09-05 08:25:00,76.5,49.7,30.25,WNW,292,0.9,0.9,39,0.00,,---,0.00,VWS V14.01,2013-09-05 14:25:00,
2013-09-05 08:30:00,76.1,49.4,30.25,WNW,292,0.0,0.0,39,0.00,,---,0.00,VWS V14.01,2013-09-05 14:30:00,
2013-09-05 08:35:00,76.9,49.4,30.25,WNW,292,0.7,0.7,38,0.00,,---,0.00,VWS V14.01,2013-09-05 14:35:00,
2013-09-05 08:40:00,77.4,49.8,30.25,WNW,292,0.0,0.0,38,0.00,,---,0.00,VWS V14.01,2013-09-05 14:40:00,
2013-09-05 08:45:00,78.1,48.2,30.25,West,270,1.3,1.3,35,0.00,,---,0.00,VWS V14.01,2013-09-05 14:45:00,
2013-09-05 08:50:00,77.9,48.1,30.25,West,270,0.2,0.2,35,0.00,,---,0.00,VWS V14.01,2013-09-05 14:50:00,
2013-09-05 08:55:00,79.0,49.0,30.25,West,270,0.0,0.0,35,0.00,,---,0.00,VWS V14.01,2013-09-05 14:55:00,
2013-09-05 09:00:00,80.1,49.2,30.25,NW,315,1.1,1.1,34,0.00,,---,0.00,VWS V14.01,2013-09-05 15:00:00,
2013-09-05 09:05:00,80.3,48.6,30.26,SW,225,0.4,0.4,33,0.00,,---,0.00,VWS V14.01,2013-09-05 15:05:00,
2013-09-05 09:10:00,79.7,48.1,30.26,WSW,248,1.1,1.1,33,0.00,,---,0.00,VWS V14.01,2013-09-05 15:10:00,
2013-09-05 09:15:00,79.6,48.0,30.26,NW,315,1.3,1.3,33,0.00,,---,0.00,VWS V14.01,2013-09-05 15:15:00,
2013-09-05 09:20:00,80.1,48.4,30.26,NNW,338,2.5,2.5,33,0.00,,---,0.00,VWS V14.01,2013-09-05 15:20:00,
2013-09-05 09:25:00,80.1,48.4,30.26,West,270,1.1,1.1,33,0.00,,---,0.00,VWS V14.01,2013-09-05 15:25:00,
2013-09-05 09:30:00,80.3,48.6,30.26,West,270,0.7,0.7,33,0.00,,---,0.00,VWS V14.01,2013-09-05 15:30:00,
2013-09-05 09:35:00,80.6,48.9,30.26,WNW,292,2.9,2.9,33,0.00,,---,0.00,VWS V14.01,2013-09-05 15:35:00,
2013-09-05 09:40:00,80.3,47.8,30.26,WNW,292,1.1,1.1,32,0.00,,---,0.00,VWS V14.01,2013-09-05 15:40:00,
2013-09-05 09:45:00,81.0,48.4,30.26,West,270,0.4,0.4,32,0.00,,---,0.00,VWS V14.01,2013-09-05 15:45:00,
2013-09-05 09:50:00,82.1,48.5,30.26,NNW,338,1.6,1.6,31,0.00,,---,0.00,VWS V14.01,2013-09-05 15:50:00,
2013-09-05 09:55:00,83.2,47.7,30.26,NNW,338,1.1,1.1,29,0.00,,---,0.00,VWS V14.01,2013-09-05 15:55:00,
2013-09-05 10:00:00,82.4,47.0,30.27,WSW,248,0.4,0.4,29,0.00,,---,0.00,VWS V14.01,2013-09-05 16:00:00,
2013-09-05 10:05:00,83.7,48.1,30.27,NE,45,0.2,0.2,29,0.00,,---,0.00,VWS V14.01,2013-09-05 16:05:00,
2013-09-05 10:10:00,83.9,47.3,30.27,WSW,248,2.0,2.0,28,0.00,,---,0.00,VWS V14.01,2013-09-05 16:10:00,
2013-09-05 10:15:00,83.3,47.8,30.27,SW,225,0.2,0.2,29,0.00,,---,0.00,VWS V14.01,2013-09-05 16:15:00,
2013-09-05 10:20:00,84.6,46.0,30.27,SW,225,1.3,1.3,26,0.00,,---,0.00,VWS V14.01,2013-09-05 16:20:00,
2013-09-05 10:25:00,84.6,46.0,30.27,NW,315,1.1,1.1,26,0.00,,---,0.00,VWS V14.01,2013-09-05 16:25:00,
2013-09-05 10:30:00,84.6,44.9,30.27,SSE,158,0.9,0.9,25,0.00,,---,0.00,VWS V14.01,2013-09-05 16:30:00,
2013-09-05 10:35:00,84.2,43.5,30.27,WSW,248,3.8,3.8,24,0.00,,---,0.00,VWS V14.01,2013-09-05 16:35:00,
2013-09-05 10:40:00,83.2,43.8,30.27,SW,225,2.5,2.5,25,0.00,,---,0.00,VWS V14.01,2013-09-05 16:40:00,
2013-09-05 10:45:00,83.7,45.2,30.27,SSW,202,0.2,0.2,26,0.00,,---,0.00,VWS V14.01,2013-09-05 16:45:00,
2013-09-05 10:50:00,84.2,44.6,30.27,WSW,248,2.7,2.7,25,0.00,,---,0.00,VWS V14.01,2013-09-05 16:50:00,
2013-09-05 10:55:00,84.2,44.6,30.27,NW,315,0.0,0.0,25,0.00,,---,0.00,VWS V14.01,2013-09-05 16:55:00,
2013-09-05 11:00:00,84.8,44.0,30.26,WSW,248,2.0,2.0,24,0.00,,---,0.00,VWS V14.01,2013-09-05 17:00:00,
2013-09-05 11:05:00,83.9,43.3,30.26,WSW,248,2.2,2.2,24,0.00,,---,0.00,VWS V14.01,2013-09-05 17:05:00,
2013-09-05 11:10:00,83.0,43.6,30.26,WSW,248,0.9,0.9,25,0.00,,---,0.00,VWS V14.01,2013-09-05 17:10:00,
2013-09-05 11:15:00,83.0,43.6,30.26,WSW,248,3.6,3.6,25,0.00,,---,0.00,VWS V14.01,2013-09-05 17:15:00,
2013-09-05 11:20:00,83.2,42.7,30.26,SW,225,2.2,2.2,24,0.00,,---,0.00,VWS V14.01,2013-09-05 17:20:00,
2013-09-05 11:25:00,82.8,43.4,30.26,West,270,1.6,1.6,25,0.00,,---,0.00,VWS V14.01,2013-09-05 17:25:00,
2013-09-05 11:30:00,83.2,42.7,30.25,SW,225,1.8,1.8,24,0.00,,---,0.00,VWS V14.01,2013-09-05 17:30:00,
2013-09-05 11:35:00,84.2,44.6,30.25,NNW,338,3.4,6.3,25,0.00,,---,0.00,VWS V14.01,2013-09-05 17:35:00,
2013-09-05 11:40:00,83.9,44.3,30.25,NW,315,2.5,2.5,25,0.00,,---,0.00,VWS V14.01,2013-09-05 17:40:00,
2013-09-05 11:45:00,84.1,43.5,30.25,SW,225,2.5,2.5,24,0.00,,---,0.00,VWS V14.01,2013-09-05 17:45:00,
2013-09-05 11:50:00,84.8,42.9,30.25,SE,135,1.8,1.8,23,0.00,,---,0.00,VWS V14.01,2013-09-05 17:50:00,
2013-09-05 11:55:00,84.8,42.9,30.25,SE,135,1.6,1.6,23,0.00,,---,0.00,VWS V14.01,2013-09-05 17:55:00,
2013-09-05 12:00:00,85.3,43.3,30.25,SW,225,2.0,2.0,23,0.00,,---,0.00,VWS V14.01,2013-09-05 18:00:00,
2013-09-05 12:05:00,85.5,43.5,30.25,WSW,248,4.0,4.0,23,0.00,,---,0.00,VWS V14.01,2013-09-05 18:05:00,
2013-09-05 12:10:00,85.0,43.1,30.25,WSW,248,0.0,0.0,23,0.00,,---,0.00,VWS V14.01,2013-09-05 18:10:00,
2013-09-05 12:15:00,85.0,44.2,30.25,SW,225,1.8,1.8,24,0.00,,---,0.00,VWS V14.01,2013-09-05 18:15:00,
2013-09-05 12:20:00,85.0,43.1,30.25,SW,225,0.0,0.0,23,0.00,,---,0.00,VWS V14.01,2013-09-05 18:20:00,
2013-09-05 12:25:00,84.6,42.8,30.24,SW,225,1.1,1.1,23,0.00,,---,0.00,VWS V14.01,2013-09-05 18:25:00,
2013-09-05 12:30:00,85.1,43.2,30.24,South,180,2.5,2.5,23,0.00,,---,0.00,VWS V14.01,2013-09-05 18:30:00,
2013-09-05 12:35:00,84.6,43.9,30.25,WSW,248,2.5,2.5,24,0.00,,---,0.00,VWS V14.01,2013-09-05 18:35:00,
2013-09-05 12:40:00,84.4,42.6,30.24,SW,225,4.5,4.5,23,0.00,,---,0.00,VWS V14.01,2013-09-05 18:40:00,
2013-09-05 12:45:00,84.8,42.9,30.24,WSW,248,2.5,2.5,23,0.00,,---,0.00,VWS V14.01,2013-09-05 18:45:00,
2013-09-05 12:50:00,84.8,42.9,30.24,WSW,248,1.3,1.3,23,0.00,,---,0.00,VWS V14.01,2013-09-05 18:50:00,
2013-09-05 12:55:00,85.3,42.2,30.24,SSW,202,1.8,1.8,22,0.00,,---,0.00,VWS V14.01,2013-09-05 18:55:00,
2013-09-05 13:00:00,85.3,43.3,30.24,WNW,292,1.8,1.8,23,0.00,,---,0.00,VWS V14.01,2013-09-05 19:00:00,
2013-09-05 13:05:00,85.7,43.7,30.23,SW,225,2.5,2.5,23,0.00,,---,0.00,VWS V14.01,2013-09-05 19:05:00,
2013-09-05 13:10:00,85.7,43.7,30.24,East,90,0.9,1.8,23,0.00,,---,0.00,VWS V14.01,2013-09-05 19:10:00,
2013-09-05 13:15:00,86.0,42.8,30.23,NW,315,1.8,1.8,22,0.00,,---,0.00,VWS V14.01,2013-09-05 19:15:00,
2013-09-05 13:20:00,86.2,44.1,30.23,West,270,1.6,1.6,23,0.00,,---,0.00,VWS V14.01,2013-09-05 19:20:00,
2013-09-05 13:25:00,85.7,42.5,30.23,NW,315,2.5,2.5,22,0.00,,---,0.00,VWS V14.01,2013-09-05 19:25:00,
2013-09-05 13:30:00,85.9,43.8,30.23,NNW,338,3.4,3.4,23,0.00,,---,0.00,VWS V14.01,2013-09-05 19:30:00,
2013-09-05 13:35:00,86.2,42.9,30.23,SW,225,0.7,0.7,22,0.00,,---,0.00,VWS V14.01,2013-09-05 19:35:00,
2013-09-05 13:40:00,86.2,42.9,30.23,North,0,1.8,1.8,22,0.00,,---,0.00,VWS V14.01,2013-09-05 19:40:00,
2013-09-05 13:45:00,86.8,43.4,30.23,SSE,158,0.4,0.4,22,0.00,,---,0.00,VWS V14.01,2013-09-05 19:45:00,
2013-09-05 13:50:00,87.5,44.0,30.22,NNE,22,0.7,0.7,22,0.00,,---,0.00,VWS V14.01,2013-09-05 19:50:00,
2013-09-05 13:55:00,88.0,43.2,30.22,NW,315,0.4,0.4,21,0.00,,---,0.00,VWS V14.01,2013-09-05 19:55:00,
2013-09-05 14:00:00,88.0,43.2,30.22,WNW,292,0.4,0.4,21,0.00,,---,0.00,VWS V14.01,2013-09-05 20:00:00,
2013-09-05 14:05:00,87.8,43.0,30.22,South,180,1.3,1.3,21,0.00,,---,0.00,VWS V14.01,2013-09-05 20:05:00,
2013-09-05 14:10:00,87.3,42.6,30.22,WSW,248,3.4,3.4,21,0.00,,---,0.00,VWS V14.01,2013-09-05 20:10:00,
2013-09-05 14:15:00,87.1,42.5,30.22,West,270,2.2,2.2,21,0.00,,---,0.00,VWS V14.01,2013-09-05 20:15:00,
2013-09-05 14:20:00,86.8,43.4,30.22,West,270,2.9,2.9,22,0.00,,---,0.00,VWS V14.01,2013-09-05 20:20:00,
2013-09-05 14:25:00,87.5,42.8,30.21,SSW,202,1.1,1.1,21,0.00,,---,0.00,VWS V14.01,2013-09-05 20:25:00,
2013-09-05 14:30:00,88.0,43.2,30.21,SSW,202,1.1,1.1,21,0.00,,---,0.00,VWS V14.01,2013-09-05 20:30:00,
2013-09-05 14:35:00,88.4,43.5,30.21,WSW,248,6.3,6.3,21,0.00,,---,0.00,VWS V14.01,2013-09-05 20:35:00,
2013-09-05 14:40:00,88.2,43.4,30.21,SW,225,0.9,0.9,21,0.00,,---,0.00,VWS V14.01,2013-09-05 20:40:00,
2013-09-05 14:45:00,88.6,43.7,30.20,NE,45,5.1,5.1,21,0.00,,---,0.00,VWS V14.01,2013-09-05 20:45:00,
2013-09-05 14:50:00,88.2,43.4,30.20,ESE,112,2.0,2.0,21,0.00,,---,0.00,VWS V14.01,2013-09-05 20:50:00,
2013-09-05 14:55:00,87.8,43.0,30.20,ESE,112,4.0,4.0,21,0.00,,---,0.00,VWS V14.01,2013-09-05 20:55:00,
2013-09-05 15:00:00,87.8,43.0,30.19,SW,225,1.3,1.3,21,0.00,,---,0.00,VWS V14.01,2013-09-05 21:00:00,
2013-09-05 15:05:00,87.8,41.8,30.20,SW,225,2.7,2.7,20,0.00,,---,0.00,VWS V14.01,2013-09-05 21:05:00,
2013-09-05 15:10:00,88.4,42.3,30.20,NW,315,3.6,3.6,20,0.00,,---,0.00,VWS V14.01,2013-09-05 21:10:00,
2013-09-05 15:15:00,88.7,41.2,30.19,WSW,248,5.4,5.4,19,0.00,,---,0.00,VWS V14.01,2013-09-05 21:15:00,
2013-09-05 15:20:00,88.6,43.7,30.19,WSW,248,2.5,2.5,21,0.00,,---,0.00,VWS V14.01,2013-09-05 21:20:00,
2013-09-05 15:25:00,89.5,43.2,30.19,NW,315,3.8,3.8,20,0.00,,---,0.00,VWS V14.01,2013-09-05 21:25:00,
2013-09-05 15:30:00,90.5,41.3,30.19,NNW,338,3.8,3.8,18,0.00,,---,0.00,VWS V14.01,2013-09-05 21:30:00,
2013-09-05 15:35:00,90.7,41.4,30.19,NE,45,2.2,2.2,18,0.00,,---,0.00,VWS V14.01,2013-09-05 21:35:00,
2013-09-05 15:40:00,89.6,40.5,30.18,SW,225,4.0,4.0,18,0.00,,---,0.00,VWS V14.01,2013-09-05 21:40:00,
2013-09-05 15:45:00,89.1,44.1,30.18,WNW,292,3.1,3.1,21,0.00,,---,0.00,VWS V14.01,2013-09-05 21:45:00,
2013-09-05 15:50:00,89.5,41.8,30.18,West,270,2.7,2.7,19,0.00,,---,0.00,VWS V14.01,2013-09-05 21:50:00,
2013-09-05 15:55:00,89.1,41.5,30.18,South,180,0.4,0.4,19,0.00,,---,0.00,VWS V14.01,2013-09-05 21:55:00,
2013-09-05 16:00:00,90.9,43.0,30.18,South,180,1.6,1.6,19,0.00,,---,0.00,VWS V14.01,2013-09-05 22:00:00,
2013-09-05 16:05:00,91.8,40.8,30.18,SW,225,2.9,2.9,17,0.00,,---,0.00,VWS V14.01,2013-09-05 22:05:00,
2013-09-05 16:10:00,90.5,41.3,30.18,WSW,248,2.0,2.0,18,0.00,,---,0.00,VWS V14.01,2013-09-05 22:10:00,
2013-09-05 16:15:00,89.3,41.7,30.18,WNW,292,1.8,1.8,19,0.00,,---,0.00,VWS V14.01,2013-09-05 22:15:00,
2013-09-05 16:20:00,89.5,41.8,30.18,WSW,248,2.5,2.5,19,0.00,,---,0.00,VWS V14.01,2013-09-05 22:20:00,
2013-09-05 16:25:00,89.5,41.8,30.18,WNW,292,2.2,2.2,19,0.00,,---,0.00,VWS V14.01,2013-09-05 22:25:00,
2013-09-05 16:30:00,89.8,42.1,30.17,WSW,248,0.4,0.4,19,0.00,,---,0.00,VWS V14.01,2013-09-05 22:30:00,
2013-09-05 16:35:00,90.5,41.3,30.17,NW,315,4.0,4.0,18,0.00,,---,0.00,VWS V14.01,2013-09-05 22:35:00,
2013-09-05 16:40:00,90.9,41.6,30.17,NW,315,2.5,2.5,18,0.00,,---,0.00,VWS V14.01,2013-09-05 22:40:00,
2013-09-05 16:45:00,91.6,42.2,30.17,SSW,202,1.1,1.1,18,0.00,,---,0.00,VWS V14.01,2013-09-05 22:45:00,
2013-09-05 16:50:00,93.4,43.6,30.17,WSW,248,1.8,1.8,18,0.00,,---,0.00,VWS V14.01,2013-09-05 22:50:00,
2013-09-05 16:55:00,91.8,40.8,30.17,WSW,248,6.3,6.3,17,0.00,,---,0.00,VWS V14.01,2013-09-05 22:55:00,
2013-09-05 17:00:00,91.3,41.9,30.17,WSW,248,2.2,2.2,18,0.00,,---,0.00,VWS V14.01,2013-09-05 23:00:00,
2013-09-05 17:05:00,92.2,42.6,30.17,West,270,3.8,3.8,18,0.00,,---,0.00,VWS V14.01,2013-09-05 23:05:00,
2013-09-05 17:10:00,91.8,40.8,30.17,WSW,248,6.5,6.5,17,0.00,,---,0.00,VWS V14.01,2013-09-05 23:10:00,
2013-09-05 17:15:00,91.6,42.2,30.17,NW,315,4.0,4.0,18,0.00,,---,0.00,VWS V14.01,2013-09-05 23:15:00,
2013-09-05 17:20:00,91.4,40.5,30.17,SW,225,2.0,2.0,17,0.00,,---,0.00,VWS V14.01,2013-09-05 23:20:00,
2013-09-05 17:25:00,91.8,40.8,30.17,WSW,248,2.9,2.9,17,0.00,,---,0.00,VWS V14.01,2013-09-05 23:25:00,
2013-09-05 17:30:00,91.3,41.9,30.17,SW,225,2.7,2.7,18,0.00,,---,0.00,VWS V14.01,2013-09-05 23:30:00,
2013-09-05 17:35:00,91.4,42.0,30.17,WSW,248,2.9,2.9,18,0.00,,---,0.00,VWS V14.01,2013-09-05 23:35:00,
2013-09-05 17:36:00,91.1,41.7,30.17,WSW,248,1.6,1.6,18,0.00,,---,0.00,VWS V14.01,2013-09-05 23:36:00,
2013-09-05 17:40:00,91.1,41.7,30.17,WSW,248,1.6,1.6,18,0.00,,---,0.00,VWS V14.01,2013-09-05 23:40:00,
2013-09-05 17:45:00,91.1,41.7,30.17,WSW,248,1.6,1.6,18,0.00,,---,0.00,VWS V14.01,2013-09-05 23:45:00,
2013-09-05 17:46:00,92.5,41.4,30.17,West,270,1.1,1.1,17,0.00,,---,0.00,VWS V14.01,2013-09-05 23:46:00,
2013-09-05 17:50:00,92.5,41.4,30.17,West,270,1.1,1.1,17,0.00,,---,0.00,VWS V14.01,2013-09-05 23:50:00,
2013-09-05 17:55:00,92.5,41.4,30.17,West,270,1.1,1.1,17,0.00,,---,0.00,VWS V14.01,2013-09-05 23:55:00,
2013-09-05 18:00:00,93.1,41.9,30.17,WSW,248,2.5,2.5,17,0.00,,---,0.00,VWS V14.01,2013-09-06 00:00:00,
2013-09-05 18:05:00,93.1,41.9,30.17,WSW,248,2.5,2.5,17,0.00,,---,0.00,VWS V14.01,2013-09-06 00:05:00,
2013-09-05 18:08:00,90.9,40.1,30.16,WSW,248,3.6,3.6,17,0.00,,---,0.00,VWS V14.01,2013-09-06 00:08:00,
2013-09-05 18:10:00,90.9,40.1,30.16,WSW,248,3.6,3.6,17,0.00,,---,0.00,VWS V14.01,2013-09-06 00:10:00,
2013-09-05 18:15:00,90.9,40.1,30.16,WSW,248,3.6,3.6,17,0.00,,---,0.00,VWS V14.01,2013-09-06 00:15:00,
2013-09-05 18:21:00,90.9,40.1,30.16,WSW,248,3.6,3.6,17,0.00,,---,0.00,VWS V14.01,2013-09-06 00:21:00,
2013-09-05 18:26:00,90.9,40.1,30.16,WSW,248,3.6,3.6,17,0.00,,---,0.00,VWS V14.01,2013-09-06 00:26:00,
2013-09-05 18:31:00,90.9,40.1,30.16,WSW,248,3.6,3.6,17,0.00,,---,0.00,VWS V14.01,2013-09-06 00:31:00,
2013-09-05 18:36:00,90.9,40.1,30.16,WSW,248,3.6,3.6,17,0.00,,---,0.00,VWS V14.01,2013-09-06 00:36:00,
2013-09-05 18:42:00,90.9,40.1,30.16,WSW,248,3.6,3.6,17,0.00,,---,0.00,VWS V14.01,2013-09-06 00:42:00,
2013-09-05 18:47:00,90.9,40.1,30.16,WSW,248,3.6,3.6,17,0.00,,---,0.00,VWS V14.01,2013-09-06 00:47:00,
2013-09-05 18:52:00,90.9,40.1,30.16,WSW,248,3.6,3.6,17,0.00,,---,0.00,VWS V14.01,2013-09-06 00:52:00,
2013-09-05 18:58:00,90.9,40.1,30.16,WSW,248,3.6,3.6,17,0.00,,---,0.00,VWS V14.01,2013-09-06 00:58:00,
2013-09-05 19:03:00,90.9,40.1,30.16,WSW,248,3.6,3.6,17,0.00,,---,0.00,VWS V14.01,2013-09-06 01:03:00,
2013-09-05 19:08:00,90.9,40.1,30.16,WSW,248,3.6,3.6,17,0.00,,---,0.00,VWS V14.01,2013-09-06 01:08:00,
2013-09-05 19:13:00,90.9,40.1,30.16,WSW,248,3.6,3.6,17,0.00,,---,0.00,VWS V14.01,2013-09-06 01:13:00,
2013-09-05 19:18:00,90.9,40.1,30.16,WSW,248,3.6,3.6,17,0.00,,---,0.00,VWS V14.01,2013-09-06 01:18:00,
2013-09-05 19:23:00,90.9,40.1,30.16,WSW,248,3.6,3.6,17,0.00,,---,0.00,VWS V14.01,2013-09-06 01:23:00,
2013-09-05 19:28:00,90.9,40.1,30.16,WSW,248,3.6,3.6,17,0.00,,---,0.00,VWS V14.01,2013-09-06 01:28:00,
2013-09-05 19:34:00,90.9,40.1,30.16,WSW,248,3.6,3.6,17,0.00,,---,0.00,VWS V14.01,2013-09-06 01:34:00,
2013-09-05 19:42:00,90.9,40.1,30.16,WSW,248,3.6,3.6,17,0.00,,---,0.00,VWS V14.01,2013-09-06 01:42:00,
2013-09-05 19:47:00,90.9,40.1,30.16,WSW,248,3.6,3.6,17,0.00,,---,0.00,VWS V14.01,2013-09-06 01:47:00,
2013-09-05 19:54:00,90.9,40.1,30.16,WSW,248,3.6,3.6,17,0.00,,---,0.00,VWS V14.01,2013-09-06 01:54:00,
2013-09-05 19:59:00,90.9,40.1,30.16,WSW,248,3.6,3.6,17,0.00,,---,0.00,VWS V14.01,2013-09-06 01:59:00,
2013-09-05 20:00:00,82.8,38.9,30.17,SE,135,0.9,0.9,21,0.00,,---,0.00,VWS V14.01,2013-09-06 02:00:00,
2013-09-05 20:04:00,82.8,38.9,30.17,SE,135,0.9,0.9,21,0.00,,---,0.00,VWS V14.01,2013-09-06 02:04:00,
2013-09-05 20:09:00,82.8,38.9,30.17,SE,135,0.9,0.9,21,0.00,,---,0.00,VWS V14.01,2013-09-06 02:09:00,
2013-09-05 20:16:00,82.8,38.9,30.17,SE,135,0.9,0.9,21,0.00,,---,0.00,VWS V14.01,2013-09-06 02:16:00,
2013-09-05 20:24:00,82.8,38.9,30.17,SE,135,0.9,0.9,21,0.00,,---,0.00,VWS V14.01,2013-09-06 02:24:00,
2013-09-05 20:33:00,82.8,38.9,30.17,SE,135,0.9,0.9,21,0.00,,---,0.00,VWS V14.01,2013-09-06 02:33:00,
2013-09-05 20:39:00,82.8,38.9,30.17,SE,135,0.9,0.9,21,0.00,,---,0.00,VWS V14.01,2013-09-06 02:39:00,
2013-09-05 20:44:00,82.8,38.9,30.17,SE,135,0.9,0.9,21,0.00,,---,0.00,VWS V14.01,2013-09-06 02:44:00,
2013-09-05 20:50:00,82.8,38.9,30.17,SE,135,0.9,0.9,21,0.00,,---,0.00,VWS V14.01,2013-09-06 02:50:00,
2013-09-05 20:55:00,82.8,38.9,30.17,SE,135,0.9,0.9,21,0.00,,---,0.00,VWS V14.01,2013-09-06 02:55:00,
2013-09-05 21:00:00,82.8,38.9,30.17,SE,135,0.9,0.9,21,0.00,,---,0.00,VWS V14.01,2013-09-06 03:00:00,
2013-09-05 21:05:00,82.8,38.9,30.17,SE,135,0.9,0.9,21,0.00,,---,0.00,VWS V14.01,2013-09-06 03:05:00,
2013-09-05 21:10:00,82.8,38.9,30.17,SE,135,0.9,0.9,21,0.00,,---,0.00,VWS V14.01,2013-09-06 03:10:00,
2013-09-05 21:16:00,82.8,38.9,30.17,SE,135,0.9,0.9,21,0.00,,---,0.00,VWS V14.01,2013-09-06 03:16:00,
2013-09-05 21:22:00,82.8,38.9,30.17,SE,135,0.9,0.9,21,0.00,,---,0.00,VWS V14.01,2013-09-06 03:22:00,
2013-09-05 21:27:00,82.8,38.9,30.17,SE,135,0.9,0.9,21,0.00,,---,0.00,VWS V14.01,2013-09-06 03:27:00,
2013-09-05 21:32:00,82.8,38.9,30.17,SE,135,0.9,0.9,21,0.00,,---,0.00,VWS V14.01,2013-09-06 03:32:00,
2013-09-05 21:38:00,82.8,38.9,30.17,SE,135,0.9,0.9,21,0.00,,---,0.00,VWS V14.01,2013-09-06 03:38:00,
2013-09-05 21:45:00,82.8,38.9,30.17,SE,135,0.9,0.9,21,0.00,,---,0.00,VWS V14.01,2013-09-06 03:45:00,
2013-09-05 21:50:00,82.8,38.9,30.17,SE,135,0.9,0.9,21,0.00,,---,0.00,VWS V14.01,2013-09-06 03:50:00,
2013-09-05 21:55:00,82.8,38.9,30.17,SE,135,0.9,0.9,21,0.00,,---,0.00,VWS V14.01,2013-09-06 03:55:00,
2013-09-05 22:00:00,79.7,36.3,30.20,South,180,4.0,4.0,21,0.00,,---,0.00,VWS V14.01,2013-09-06 04:00:00,
2013-09-05 22:01:00,79.7,36.3,30.20,South,180,4.0,4.0,21,0.00,,---,0.00,VWS V14.01,2013-09-06 04:01:00,
2013-09-05 22:06:00,79.7,36.3,30.20,SSE,158,3.6,4.5,21,0.00,,---,0.00,VWS V14.01,2013-09-06 04:06:00,
2013-09-05 22:11:00,79.6,36.3,30.20,South,180,4.0,4.0,21,0.00,,---,0.00,VWS V14.01,2013-09-06 04:11:00,
2013-09-05 22:16:00,79.6,36.3,30.20,SSW,202,2.5,2.5,21,0.00,,---,0.00,VWS V14.01,2013-09-06 04:16:00,
2013-09-05 22:21:00,79.4,36.1,30.20,South,180,3.4,3.4,21,0.00,,---,0.00,VWS V14.01,2013-09-06 04:21:00,
2013-09-05 22:26:00,79.0,35.8,30.21,South,180,4.0,4.0,21,0.00,,---,0.00,VWS V14.01,2013-09-06 04:26:00,
2013-09-05 22:31:00,79.0,35.8,30.20,SSE,158,4.3,4.3,21,0.00,,---,0.00,VWS V14.01,2013-09-06 04:31:00,
2013-09-05 22:36:00,79.0,35.8,30.21,ESE,112,3.4,3.4,21,0.00,,---,0.00,VWS V14.01,2013-09-06 04:36:00,
2013-09-05 22:41:00,78.8,35.6,30.20,SW,225,5.1,5.1,21,0.00,,---,0.00,VWS V14.01,2013-09-06 04:41:00,
2013-09-05 22:46:00,78.7,36.7,30.21,South,180,1.6,1.6,22,0.00,,---,0.00,VWS V14.01,2013-09-06 04:46:00,
2013-09-05 22:51:00,78.5,36.5,30.21,SSE,158,2.5,2.5,22,0.00,,---,0.00,VWS V14.01,2013-09-06 04:51:00,
2013-09-05 22:56:00,78.5,36.5,30.21,South,180,1.8,1.8,22,0.00,,---,0.00,VWS V14.01,2013-09-06 04:56:00,
2013-09-05 23:01:00,78.5,36.5,30.21,South,180,2.7,2.7,22,0.00,,---,0.00,VWS V14.01,2013-09-06 05:01:00,
2013-09-05 23:06:00,78.3,36.4,30.22,SE,135,4.0,4.0,22,0.00,,---,0.00,VWS V14.01,2013-09-06 05:06:00,
2013-09-05 23:11:00,78.3,36.4,30.21,South,180,3.1,3.1,22,0.00,,---,0.00,VWS V14.01,2013-09-06 05:11:00,
2013-09-05 23:16:00,78.1,36.2,30.21,South,180,4.3,4.3,22,0.00,,---,0.00,VWS V14.01,2013-09-06 05:16:00,
2013-09-05 23:21:00,77.8,37.1,30.21,SW,225,2.9,2.9,23,0.00,,---,0.00,VWS V14.01,2013-09-06 05:21:00,
2013-09-05 23:26:00,77.8,36.0,30.22,SSE,158,5.4,5.4,22,0.00,,---,0.00,VWS V14.01,2013-09-06 05:26:00,
2013-09-05 23:31:00,77.8,37.1,30.21,South,180,4.3,4.3,23,0.00,,---,0.00,VWS V14.01,2013-09-06 05:31:00,
2013-09-05 23:36:00,77.8,37.1,30.21,South,180,1.3,1.3,23,0.00,,---,0.00,VWS V14.01,2013-09-06 05:36:00,
2013-09-05 23:41:00,77.4,36.7,30.21,South,180,2.2,2.2,23,0.00,,---,0.00,VWS V14.01,2013-09-06 05:41:00,
2013-09-05 23:46:00,77.2,36.6,30.21,South,180,2.2,2.2,23,0.00,,---,0.00,VWS V14.01,2013-09-06 05:46:00,
2013-09-05 23:51:00,77.0,36.4,30.21,SSW,202,1.1,1.1,23,0.00,,---,0.00,VWS V14.01,2013-09-06 05:51:00,
2013-09-05 23:56:00,76.9,36.3,30.22,South,180,2.0,2.0,23,0.00,,---,0.00,VWS V14.01,2013-09-06 05:56:00,